Time;durP1;ratioP1;P1;durP2;ratioP2;P2;SDS_P1;SDS_P2;PMS_P1;PMS_P2;Temp;Humidity;BMP_temperature;BMP_pressure;BME280_temperature;BME280_humidity;BME280_pressure;Samples;Min_cycle;Max_cycle;Signal;HPM_P1;HPM_P2
2022/10/18 00:02:22;;;;;;;18.52;11.33;;;;;;;6.47;84.74;99219.11;1671790;86;20991;-79
2022/10/18 00:04:49;;;;;;;25.25;12.28;;;;;;;6.48;84.80;99212.99;1713246;84;21016;-81
2022/10/18 00:07:17;;;;;;;22.10;11.73;;;;;;;6.52;84.84;99221.78;1693448;83;20996;-81
2022/10/18 00:09:44;;;;;;;22.05;11.28;;;;;;;6.51;84.92;99216.08;1712270;83;20985;-80
2022/10/18 00:12:10;;;;;;;20.97;11.78;;;;;;;6.51;85.03;99216.08;1711099;84;21421;-80
2022/10/18 00:14:37;;;;;;;17.73;11.68;;;;;;;6.53;85.04;99209.06;1711445;83;20965;-82
2022/10/18 00:17:03;;;;;;;19.25;10.82;;;;;;;6.52;85.09;99213.43;1695901;83;21087;-81
2022/10/18 00:19:30;;;;;;;19.60;11.35;;;;;;;6.50;85.08;99208.60;1691166;84;21001;-82
2022/10/18 00:21:56;;;;;;;19.12;11.08;;;;;;;6.45;85.07;99215.14;1685412;84;21000;-83
2022/10/18 00:24:23;;;;;;;19.10;11.55;;;;;;;6.43;85.30;99214.26;1692134;84;21497;-83
2022/10/18 00:26:50;;;;;;;20.88;10.50;;;;;;;6.45;85.35;99211.64;1695430;84;21012;-83
2022/10/18 00:29:16;;;;;;;20.00;11.35;;;;;;;6.44;85.37;99208.57;1685334;84;21870;-83
2022/10/18 00:31:43;;;;;;;18.42;11.22;;;;;;;6.46;85.40;99208.13;1701068;82;20962;-83
2022/10/18 00:34:15;;;;;;;21.52;11.45;;;;;;;6.47;85.38;99204.62;1694192;84;20992;-84
2022/10/18 00:36:43;;;;;;;20.68;11.80;;;;;;;6.46;85.29;99205.08;1700583;82;20988;-82
2022/10/18 00:39:15;;;;;;;23.30;11.97;;;;;;;6.45;85.37;99212.50;1685242;84;21000;-82
2022/10/18 00:41:41;;;;;;;21.35;11.33;;;;;;;6.48;85.42;99209.05;1685374;84;20960;-83
2022/10/18 00:44:16;;;;;;;21.42;11.35;;;;;;;6.48;85.34;99210.36;1685306;84;20985;-83
2022/10/18 00:46:47;;;;;;;19.00;10.70;;;;;;;6.47;85.36;99205.94;1685350;84;21377;-83
2022/10/18 00:49:21;;;;;;;14.55;9.65;;;;;;;6.45;85.23;99198.02;1685083;84;20980;-83
2022/10/18 00:51:58;;;;;;;19.50;11.15;;;;;;;6.41;85.28;99200.64;1704400;84;20997;-82
2022/10/18 00:54:31;;;;;;;17.73;10.40;;;;;;;6.39;85.27;99201.08;1713744;83;21064;-82
2022/10/18 00:57:04;;;;;;;17.62;10.80;;;;;;;6.32;84.93;99202.78;1713276;84;21034;-83
2022/10/18 00:59:34;;;;;;;19.02;10.15;;;;;;;6.26;85.02;99198.77;1713675;84;20968;-82
2022/10/18 01:02:03;;;;;;;20.57;11.00;;;;;;;6.22;85.06;99197.87;1708174;84;21004;-83
2022/10/18 01:04:30;;;;;;;18.75;10.60;;;;;;;6.18;85.08;99190.81;1713841;83;20969;-83
2022/10/18 01:07:20;;;;;;;20.70;11.25;;;;;;;6.16;85.03;99190.83;1677105;84;21463;-83
2022/10/18 01:10:29;;;;;;;21.17;11.63;;;;;;;6.12;84.86;99183.77;1644776;87;21069;-83
2022/10/18 01:13:33;;;;;;;16.87;10.00;;;;;;;6.03;84.88;99187.64;1687305;84;21147;-82
2022/10/18 01:16:12;;;;;;;18.62;11.03;;;;;;;5.98;85.22;99184.92;1690039;84;21034;-83
2022/10/18 01:19:17;;;;;;;16.75;9.90;;;;;;;5.94;85.56;99176.58;1713717;83;21019;-83
2022/10/18 01:22:07;;;;;;;20.00;10.75;;;;;;;5.90;85.38;99182.68;1696081;84;20925;-83
2022/10/18 01:25:03;;;;;;;20.40;10.13;;;;;;;5.86;85.93;99179.12;1712070;83;20945;-82
2022/10/18 01:27:53;;;;;;;19.92;10.45;;;;;;;5.83;85.44;99179.53;1713840;84;21067;-82
2022/10/18 01:30:48;;;;;;;20.57;10.32;;;;;;;5.79;85.53;99178.63;1706016;83;21028;-82
2022/10/18 01:33:39;;;;;;;14.63;10.05;;;;;;;5.75;85.18;99176.83;1712744;84;20964;-82
2022/10/18 01:36:25;;;;;;;18.95;11.10;;;;;;;5.71;85.50;99171.09;1699432;82;21410;-84
2022/10/18 01:38:56;;;;;;;17.17;9.95;;;;;;;5.68;85.71;99169.31;1713957;83;20996;-81
2022/10/18 01:41:24;;;;;;;19.35;10.82;;;;;;;5.62;85.39;99167.53;1712637;84;20954;-79
2022/10/18 01:43:58;;;;;;;22.58;11.53;;;;;;;5.60;85.90;99163.98;1696843;84;21020;-79
2022/10/18 01:46:28;;;;;;;20.85;10.82;;;;;;;5.56;85.61;99163.50;1713979;84;21043;-79
2022/10/18 01:48:56;;;;;;;19.77;11.18;;;;;;;5.54;86.04;99160.89;1671262;84;21045;-79
2022/10/18 01:51:30;;;;;;;18.60;11.30;;;;;;;5.50;85.85;99154.25;1638295;86;21055;-79
2022/10/18 01:53:57;;;;;;;;;;;;;;;5.44;85.96;99159.45;1716025;83;21066;-79
2022/10/18 01:56:35;;;;;;;17.57;11.03;;;;;;;5.37;86.42;99155.88;1713969;83;20100;-79
2022/10/18 01:59:19;;;;;;;18.95;10.90;;;;;;;5.34;86.54;99158.47;1713765;84;21036;-79
2022/10/18 02:02:00;;;;;;;18.02;10.58;;;;;;;5.30;86.50;99154.93;1680510;83;21410;-79
2022/10/18 02:04:34;;;;;;;22.30;10.85;;;;;;;5.28;86.00;99154.05;1693958;84;21577;-80
2022/10/18 02:07:35;;;;;;;22.32;11.48;;;;;;;5.24;86.09;99147.85;1713812;83;21020;-79
2022/10/18 02:10:14;;;;;;;20.40;9.80;;;;;;;5.25;86.08;99148.75;1698827;84;21076;-77
2022/10/18 02:12:45;;;;;;;14.30;10.08;;;;;;;5.23;85.81;99143.92;1713952;83;21032;-76
2022/10/18 02:15:17;;;;;;;16.37;10.13;;;;;;;5.19;85.88;99148.23;1713663;84;22068;-81
2022/10/18 02:17:46;;;;;;;18.62;10.65;;;;;;;5.17;85.79;99140.78;1709121;83;20953;-81
2022/10/18 02:20:17;;;;;;;17.10;11.00;;;;;;;5.15;85.75;99139.90;1685521;84;21001;-81
2022/10/18 02:22:48;;;;;;;19.10;10.40;;;;;;;5.10;85.68;99134.98;1689828;84;21028;-82
2022/10/18 02:25:22;;;;;;;21.02;10.95;;;;;;;5.08;85.92;99138.05;1713948;83;21025;-81
2022/10/18 02:27:49;;;;;;;19.10;10.25;;;;;;;5.07;86.05;99137.61;1713667;83;20984;-81
2022/10/18 02:30:16;;;;;;;17.90;10.48;;;;;;;5.05;86.49;99140.21;1676887;84;21526;-81
2022/10/18 02:33:03;;;;;;;22.67;10.78;;;;;;;5.06;86.18;99141.11;1652934;86;21453;-81
2022/10/18 02:35:44;;;;;;;19.90;10.82;;;;;;;5.01;86.00;99137.98;1712916;82;21032;-81
2022/10/18 02:38:13;;;;;;;23.07;10.98;;;;;;;5.01;86.25;99134.47;1708344;83;21060;-81
2022/10/18 02:40:39;;;;;;;20.15;11.12;;;;;;;5.03;86.03;99132.76;1700064;84;21028;-81
2022/10/18 02:43:06;;;;;;;21.60;10.43;;;;;;;5.04;85.94;99137.14;1713874;83;21043;-81
2022/10/18 02:45:33;;;;;;;18.05;10.30;;;;;;;5.04;85.98;99134.52;1708439;83;21059;-80
2022/10/18 02:48:02;;;;;;;20.43;10.45;;;;;;;5.07;86.24;99138.47;1706509;84;20982;-80
2022/10/18 02:50:29;;;;;;;19.90;10.55;;;;;;;5.12;86.47;99140.71;1693594;83;20938;-80
2022/10/18 02:52:55;;;;;;;17.92;9.93;;;;;;;5.17;86.22;99132.00;1713769;84;21011;-81
2022/10/18 02:55:21;;;;;;;16.77;9.70;;;;;;;5.16;86.36;99136.40;1713928;83;21056;-81
2022/10/18 02:57:48;;;;;;;17.00;10.20;;;;;;;5.20;86.37;99134.26;1713815;83;21021;-80
2022/10/18 03:00:17;;;;;;;18.17;9.23;;;;;;;5.19;86.43;99139.04;1677218;84;21383;-80
2022/10/18 03:02:43;;;;;;;17.27;9.40;;;;;;;5.23;86.61;99136.89;1672114;86;21445;-80
2022/10/18 03:05:10;;;;;;;17.85;9.58;;;;;;;5.26;86.50;99138.25;1713786;84;20968;-81
2022/10/18 03:07:40;;;;;;;15.30;9.08;;;;;;;5.30;86.54;99144.42;1713848;83;21016;-80
2022/10/18 03:10:07;;;;;;;15.10;9.50;;;;;;;5.32;86.76;99139.18;1708529;83;20999;-79
2022/10/18 03:12:34;;;;;;;16.85;9.18;;;;;;;5.36;86.75;99137.04;1709661;84;20973;-79
2022/10/18 03:15:01;;;;;;;16.30;9.50;;;;;;;5.40;86.88;99123.06;1714211;84;20953;-79
2022/10/18 03:17:27;;;;;;;16.40;8.85;;;;;;;5.44;86.87;99128.77;1714112;83;20984;-80
2022/10/18 03:19:54;;;;;;;16.32;8.63;;;;;;;5.43;86.53;99125.70;1713849;83;20913;-80
2022/10/18 03:22:21;;;;;;;15.85;9.18;;;;;;;5.46;86.71;99124.84;1713669;84;21095;-79
2022/10/18 03:24:50;;;;;;;13.22;8.25;;;;;;;5.46;86.78;99124.84;1713804;83;20968;-79
2022/10/18 03:27:16;;;;;;;12.93;8.78;;;;;;;5.48;86.96;99124.45;1713760;83;21469;-80
2022/10/18 03:29:43;;;;;;;15.15;8.95;;;;;;;5.48;86.53;99120.05;1713930;83;20985;-80
2022/10/18 03:32:11;;;;;;;13.50;8.38;;;;;;;5.43;86.28;99122.21;1713229;83;21024;-80
2022/10/18 03:34:38;;;;;;;15.40;8.98;;;;;;;5.41;86.54;99118.24;1713266;82;21005;-80
2022/10/18 03:37:04;;;;;;;16.67;9.08;;;;;;;5.40;86.62;99120.44;1711273;83;20984;-80
2022/10/18 03:39:32;;;;;;;16.42;8.73;;;;;;;5.40;86.48;99119.98;1711955;83;21027;-79
2022/10/18 03:42:00;;;;;;;14.43;8.90;;;;;;;5.40;86.44;99120.44;1719434;83;21044;-79
2022/10/18 03:44:29;;;;;;;15.30;8.75;;;;;;;5.38;86.42;99114.26;1719250;83;20972;-80
2022/10/18 03:46:58;;;;;;;18.77;8.53;;;;;;;5.34;86.24;99113.36;1718998;83;21576;-79
2022/10/18 03:49:25;;;;;;;13.95;8.88;;;;;;;5.31;86.14;99108.52;1707236;83;20992;-79
2022/10/18 03:51:53;;;;;;;14.78;8.75;;;;;;;5.25;85.95;99112.84;1711546;83;20980;-80
2022/10/18 03:54:19;;;;;;;14.45;9.35;;;;;;;5.19;85.87;99111.89;1719347;82;20988;-79
2022/10/18 03:56:46;;;;;;;16.57;9.53;;;;;;;5.10;85.77;99116.59;1719481;83;21015;-79
2022/10/18 03:59:12;;;;;;;17.98;9.58;;;;;;;5.06;86.13;99118.77;1719368;82;20957;-80
2022/10/18 04:01:39;;;;;;;17.52;9.78;;;;;;;5.04;86.04;99123.11;1711115;83;21402;-80
2022/10/18 04:04:05;;;;;;;15.60;9.30;;;;;;;4.98;85.83;99120.00;1715322;83;20946;-80
2022/10/18 04:06:33;;;;;;;16.37;9.03;;;;;;;4.93;85.93;99121.66;1719717;82;20992;-80
2022/10/18 04:09:00;;;;;;;18.10;10.20;;;;;;;4.87;85.90;99121.19;1719431;82;20992;-80
2022/10/18 04:11:27;;;;;;;19.40;10.03;;;;;;;4.85;86.13;99127.73;1692245;85;21483;-80
2022/10/18 04:13:59;;;;;;;16.12;9.58;;;;;;;4.80;86.23;99122.85;1719512;83;20938;-80
2022/10/18 04:16:31;;;;;;;16.65;10.28;;;;;;;4.80;86.33;99116.28;1719180;82;20989;-80
2022/10/18 04:18:57;;;;;;;17.62;9.78;;;;;;;4.79;86.44;99111.01;1692579;85;21505;-80
2022/10/18 04:21:24;;;;;;;15.78;9.38;;;;;;;4.79;86.44;99111.01;1719467;83;20977;-80
2022/10/18 04:23:50;;;;;;;18.15;8.68;;;;;;;4.75;86.21;99111.41;1719604;83;20960;-80
2022/10/18 04:26:17;;;;;;;18.05;9.38;;;;;;;4.73;86.27;99117.06;1699247;82;21050;-80
2022/10/18 04:28:44;;;;;;;19.67;9.10;;;;;;;4.68;86.24;99110.45;1705632;83;21068;-80
2022/10/18 04:31:13;;;;;;;13.98;8.78;;;;;;;4.67;86.27;99113.05;1699888;83;21034;-80
2022/10/18 04:33:39;;;;;;;16.93;9.55;;;;;;;4.65;86.44;99110.84;1709025;83;20953;-80
2022/10/18 04:36:12;;;;;;;17.62;9.95;;;;;;;4.63;86.34;99106.89;1699361;82;21039;-80
2022/10/18 04:38:39;;;;;;;21.62;10.38;;;;;;;4.61;86.46;99113.88;1719607;83;20989;-80
2022/10/18 04:41:05;;;;;;;16.87;9.48;;;;;;;4.61;86.65;99116.05;1692482;85;21043;-80
2022/10/18 04:43:32;;;;;;;20.85;10.45;;;;;;;4.61;86.73;99101.61;1702856;83;21035;-80
2022/10/18 04:46:01;;;;;;;19.82;9.48;;;;;;;4.60;86.74;99106.42;1708553;83;21091;-79
2022/10/18 04:48:28;;;;;;;16.93;9.33;;;;;;;4.58;86.66;99107.27;1718316;83;21418;-80
2022/10/18 04:50:54;;;;;;;17.12;8.68;;;;;;;4.57;86.91;99108.99;1700031;83;21399;-79
2022/10/18 04:53:21;;;;;;;18.00;9.85;;;;;;;4.57;87.02;99106.37;1719349;82;21067;-80
2022/10/18 04:55:50;;;;;;;15.38;9.28;;;;;;;4.59;87.42;99109.02;1704077;83;21000;-80
2022/10/18 04:58:18;;;;;;;22.70;9.38;;;;;;;4.57;87.01;99112.93;1691704;83;21071;-81
2022/10/18 05:00:46;;;;;;;15.88;9.00;;;;;;;4.58;86.94;99114.72;1694496;83;21045;-82
2022/10/18 05:03:13;;;;;;;16.52;9.33;;;;;;;4.59;87.12;99107.29;1690674;83;20992;-80
2022/10/18 05:05:44;;;;;;;14.73;9.05;;;;;;;4.61;87.02;99106.00;1690579;83;20945;-80
2022/10/18 05:08:12;;;;;;;17.67;10.23;;;;;;;4.62;87.18;99104.68;1690648;83;21044;-80
2022/10/18 05:10:40;;;;;;;21.10;10.28;;;;;;;4.61;87.47;99105.55;1690557;83;21047;-80
2022/10/18 05:13:07;;;;;;;17.60;10.35;;;;;;;4.61;87.22;99095.50;1690696;83;21059;-80
2022/10/18 05:15:33;;;;;;;16.32;9.93;;;;;;;4.61;87.71;99092.42;1690790;83;21389;-80
2022/10/18 05:18:00;;;;;;;24.32;9.98;;;;;;;4.60;88.24;99097.23;1690618;83;20953;-80
2022/10/18 05:20:26;;;;;;;21.75;9.93;;;;;;;4.61;87.95;99091.56;1690635;83;21059;-80
2022/10/18 05:22:53;;;;;;;18.37;10.75;;;;;;;4.62;87.56;99091.55;1712954;83;21028;-79
2022/10/18 05:25:23;;;;;;;21.80;10.08;;;;;;;4.66;87.78;99101.69;1695532;83;21413;-78
2022/10/18 05:27:50;;;;;;;21.20;10.18;;;;;;;4.70;87.67;99098.66;1695741;83;21008;-79
2022/10/18 05:30:16;;;;;;;18.48;10.18;;;;;;;4.75;87.97;99099.59;1695684;83;21086;-79
2022/10/18 05:32:45;;;;;;;15.60;9.33;;;;;;;4.79;87.62;99092.63;1701595;83;20936;-79
2022/10/18 05:35:12;;;;;;;19.98;9.38;;;;;;;4.86;87.96;99094.02;1695668;83;21027;-78
2022/10/18 05:37:39;;;;;;;17.40;9.23;;;;;;;4.94;88.03;99098.05;1714155;82;20996;-79
2022/10/18 05:40:09;;;;;;;15.90;9.40;;;;;;;5.01;88.27;99101.63;1696940;83;21027;-79
2022/10/18 05:42:35;;;;;;;17.82;9.15;;;;;;;5.10;88.62;99099.52;1696606;83;20976;-79
2022/10/18 05:45:02;;;;;;;23.75;10.28;;;;;;;5.19;88.52;99110.58;1695681;83;21015;-79
2022/10/18 05:47:29;;;;;;;14.28;9.90;;;;;;;5.26;88.32;99108.03;1695536;83;21004;-79
2022/10/18 05:49:56;;;;;;;18.80;9.80;;;;;;;5.33;88.65;99108.97;1695738;83;20977;-79
2022/10/18 05:52:24;;;;;;;20.35;9.63;;;;;;;5.40;88.46;99113.41;1716196;83;21036;-78
2022/10/18 05:54:54;;;;;;;23.57;10.53;;;;;;;5.47;88.23;99116.08;1695994;83;20972;-78
2022/10/18 05:57:20;;;;;;;19.82;9.98;;;;;;;5.54;88.37;99117.50;1695670;83;20985;-78
2022/10/18 05:59:47;;;;;;;17.37;9.75;;;;;;;5.61;88.50;99118.86;1695702;83;21501;-79
2022/10/18 06:02:13;;;;;;;25.40;12.58;;;;;;;5.70;88.54;99110.16;1701856;83;21003;-79
2022/10/18 06:04:40;;;;;;;17.48;9.80;;;;;;;5.77;88.43;99110.67;1691937;83;21390;-78
2022/10/18 06:07:10;;;;;;;18.52;9.68;;;;;;;5.84;88.40;99107.63;1707200;83;21074;-78
2022/10/18 06:09:42;;;;;;;17.25;9.13;;;;;;;5.90;88.30;99110.33;1692496;82;21382;-79
2022/10/18 06:12:08;;;;;;;20.72;9.38;;;;;;;5.98;88.44;99108.61;1695750;83;21019;-80
2022/10/18 06:14:37;;;;;;;18.45;10.00;;;;;;;6.06;88.33;99104.74;1691155;82;21032;-79
2022/10/18 06:17:05;;;;;;;18.65;9.23;;;;;;;6.15;88.22;99108.75;1690388;83;21040;-79
2022/10/18 06:19:34;;;;;;;20.17;9.20;;;;;;;6.23;88.26;99109.25;1688114;83;21035;-79
2022/10/18 06:22:00;;;;;;;25.05;9.50;;;;;;;6.29;88.20;99101.38;1690708;83;20992;-79
2022/10/18 06:24:28;;;;;;;16.30;9.83;;;;;;;6.37;88.26;99102.74;1690830;83;21028;-79
2022/10/18 06:26:54;;;;;;;17.80;9.28;;;;;;;6.42;88.19;99100.59;1690687;83;21398;-79
2022/10/18 06:29:21;;;;;;;13.60;9.08;;;;;;;6.50;87.95;99102.36;1690777;83;20988;-79
2022/10/18 06:31:47;;;;;;;18.48;9.43;;;;;;;6.56;88.06;99101.96;1691296;83;21438;-79
2022/10/18 06:34:15;;;;;;;15.53;9.08;;;;;;;6.64;88.04;99099.36;1692313;82;21036;-79
2022/10/18 06:36:43;;;;;;;17.65;8.63;;;;;;;6.70;88.12;99093.24;1687039;84;21039;-79
2022/10/18 06:39:10;;;;;;;18.73;8.38;;;;;;;6.78;87.98;99088.89;1702300;83;21019;-78
2022/10/18 06:41:38;;;;;;;17.85;9.35;;;;;;;6.83;87.81;99093.73;1700855;83;21433;-79
2022/10/18 06:44:13;;;;;;;22.62;10.03;;;;;;;6.89;87.91;99095.49;1696163;83;21060;-79
2022/10/18 06:46:37;;;;;;;18.05;9.58;;;;;;;6.95;87.89;99090.27;1704015;83;20973;-79
2022/10/18 06:49:04;;;;;;;37.28;14.47;;;;;;;6.99;87.61;99099.05;1712476;82;20992;-80
2022/10/18 06:51:30;;;;;;;21.97;13.13;;;;;;;7.04;87.70;99095.09;1699673;83;21410;-81
2022/10/18 06:53:57;;;;;;;18.60;10.25;;;;;;;7.09;87.58;99093.34;1699452;83;21039;-81
2022/10/18 06:56:23;;;;;;;17.55;9.83;;;;;;;7.16;87.53;99086.34;1698091;83;21999;-81
2022/10/18 06:58:50;;;;;;;18.02;8.90;;;;;;;7.21;87.77;99092.07;1698276;83;20988;-82
2022/10/18 07:01:18;;;;;;;17.82;9.40;;;;;;;7.27;87.53;99084.63;1707101;83;20987;-86
2022/10/18 07:03:47;;;;;;;15.95;9.25;;;;;;;7.33;87.77;99085.94;1706470;82;21055;-83
2022/10/18 07:06:19;;;;;;;27.10;14.10;;;;;;;7.39;87.69;99085.05;1698395;83;21042;-85
2022/10/18 07:08:47;;;;;;;21.07;11.95;;;;;;;7.47;87.55;99075.84;1676208;85;21035;-79
2022/10/18 07:11:18;;;;;;;20.88;9.68;;;;;;;7.55;87.51;99079.34;1698366;83;20983;-78
2022/10/18 07:13:45;;;;;;;15.60;9.55;;;;;;;7.63;87.54;99080.66;1706174;83;21028;-78
2022/10/18 07:16:16;;;;;;;16.12;9.88;;;;;;;7.72;87.45;99080.66;1711233;83;21720;-78
2022/10/18 07:18:50;;;;;;;15.53;9.58;;;;;;;7.81;87.35;99077.59;1714148;83;21382;-77
2022/10/18 07:21:21;;;;;;;18.40;10.50;;;;;;;7.90;87.31;99072.31;1703868;83;21405;-77
2022/10/18 07:23:49;;;;;;;17.17;10.10;;;;;;;7.99;87.30;99060.41;1698192;83;21035;-77
2022/10/18 07:26:23;;;;;;;19.73;10.55;;;;;;;8.11;87.30;99063.91;1715164;83;20999;-78
2022/10/18 07:28:54;;;;;;;;;;;;;;;8.22;87.10;99063.42;1703726;83;21099;-77
2022/10/18 07:31:21;;;;;;;22.90;10.80;;;;;;;8.33;86.96;99060.77;1700864;83;20313;-77
2022/10/18 07:33:49;;;;;;;18.57;9.48;;;;;;;8.40;86.86;99061.63;1698059;83;21015;-76
2022/10/18 07:36:23;;;;;;;18.05;10.28;;;;;;;8.49;86.79;99059.38;1719033;83;21091;-72
2022/10/18 07:38:51;;;;;;;;;;;;;;;8.57;86.68;99055.87;1704367;83;20984;-74
2022/10/18 07:41:19;;;;;;;29.55;13.45;;;;;;;8.66;86.65;99058.91;1693102;83;20113;-75
2022/10/18 07:43:49;;;;;;;26.05;13.55;;;;;;;8.75;86.62;99059.30;1690519;83;21000;-76
2022/10/18 07:46:18;;;;;;;25.02;13.72;;;;;;;8.85;86.50;99057.50;1707088;83;21050;-78
2022/10/18 07:48:45;;;;;;;26.27;14.87;;;;;;;8.93;86.33;99050.84;1693311;83;21057;-75
2022/10/18 07:51:12;;;;;;;26.93;14.45;;;;;;;9.04;86.24;99050.77;1701027;83;21015;-75
2022/10/18 07:53:40;;;;;;;23.85;14.15;;;;;;;9.13;86.05;99038.80;1703970;83;21000;-75
2022/10/18 07:56:14;;;;;;;25.50;14.15;;;;;;;9.23;85.94;99037.84;1707361;82;21023;-75
2022/10/18 07:58:38;;;;;;;21.00;13.18;;;;;;;9.33;85.75;99035.14;1702018;83;21015;-75
2022/10/18 08:01:08;;;;;;;21.15;13.70;;;;;;;9.42;85.62;99034.20;1703961;83;21036;-74
2022/10/18 08:03:36;;;;;;;22.67;14.15;;;;;;;9.52;85.47;99030.59;1706595;83;21027;-74
2022/10/18 08:06:05;;;;;;;26.20;13.95;;;;;;;9.61;85.43;99026.55;1695030;83;21003;-75
2022/10/18 08:08:32;;;;;;;31.70;18.52;;;;;;;9.71;85.26;99026.00;1695271;83;21584;-75
2022/10/18 08:11:04;;;;;;;34.63;17.32;;;;;;;9.83;85.09;99026.33;1695343;83;21016;-75
2022/10/18 08:13:31;;;;;;;29.70;18.10;;;;;;;9.95;84.84;99030.63;1705271;83;21491;-75
2022/10/18 08:16:04;;;;;;;32.50;19.20;;;;;;;10.04;84.62;99023.02;1705279;83;21039;-75
2022/10/18 08:18:32;;;;;;;34.97;21.07;;;;;;;10.15;84.32;99018.50;1715189;83;21031;-74
2022/10/18 08:21:01;;;;;;;33.20;19.55;;;;;;;10.26;84.30;99015.70;1724711;82;20952;-74
2022/10/18 08:23:31;;;;;;;33.88;20.32;;;;;;;10.35;83.87;99006.79;1692594;83;21084;-74
2022/10/18 08:26:04;;;;;;;34.50;20.43;;;;;;;10.45;83.72;99006.67;1705371;83;20990;-74
2022/10/18 08:28:31;;;;;;;32.47;21.80;;;;;;;10.53;83.35;99003.05;1713886;83;21348;-74
2022/10/18 08:31:09;;;;;;;36.63;19.90;;;;;;;10.64;83.16;98996.73;1705624;83;22106;-74
2022/10/18 08:33:37;;;;;;;30.62;20.02;;;;;;;10.72;82.93;99001.48;1723421;82;20944;-75
2022/10/18 08:36:06;;;;;;;35.95;19.60;;;;;;;10.81;82.75;98996.49;1712454;82;21404;-75
2022/10/18 08:38:35;;;;;;;37.93;19.90;;;;;;;10.88;82.57;98990.19;1705317;83;20991;-75
2022/10/18 08:41:24;;;;;;;32.85;19.27;;;;;;;10.97;82.29;98989.20;1705704;83;20994;-75
2022/10/18 08:44:14;;;;;;;35.40;20.25;;;;;;;11.06;82.06;98986.84;1705432;83;21436;-73
2022/10/18 08:46:49;;;;;;;47.35;20.23;;;;;;;11.15;81.78;98988.46;1718380;83;21062;-73
2022/10/18 08:49:31;;;;;;;42.73;20.90;;;;;;;11.27;81.64;98982.09;1711132;83;21022;-73
2022/10/18 08:51:58;;;;;;;40.52;19.75;;;;;;;11.37;81.64;98978.84;1727595;83;21011;-75
2022/10/18 08:54:36;;;;;;;137.75;68.65;;;;;;;11.49;81.48;98975.96;1692089;85;21494;-73
2022/10/18 08:57:09;;;;;;;59.15;28.83;;;;;;;11.58;81.16;98977.56;1719286;83;21438;-73
2022/10/18 08:59:41;;;;;;;56.20;24.82;;;;;;;11.68;80.75;98976.52;1685308;85;21005;-73
2022/10/18 09:02:34;;;;;;;46.28;23.52;;;;;;;11.78;80.72;98970.58;1712134;83;21035;-73
2022/10/18 09:05:09;;;;;;;44.03;24.05;;;;;;;11.88;80.29;98967.31;1692393;83;21029;-73
2022/10/18 09:08:09;;;;;;;41.10;23.00;;;;;;;12.00;80.18;98972.36;1719002;83;20992;-73
2022/10/18 09:11:04;;;;;;;38.23;22.82;;;;;;;12.09;79.96;98963.36;1709066;83;20979;-73
2022/10/18 09:13:39;;;;;;;46.70;21.52;;;;;;;12.19;79.72;98960.08;1688454;85;21029;-73
2022/10/18 09:16:13;;;;;;;36.42;20.08;;;;;;;12.27;79.25;98963.46;1703513;83;20992;-74
2022/10/18 09:19:07;;;;;;;39.25;21.93;;;;;;;12.36;79.05;98966.38;1690629;83;20969;-74
2022/10/18 09:21:52;;;;;;;38.70;21.73;;;;;;;12.45;78.75;98961.77;1663578;83;21447;-74
2022/10/18 09:24:47;;;;;;;36.30;20.65;;;;;;;12.53;78.44;98966.45;1690669;83;21003;-74
2022/10/18 09:27:21;;;;;;;38.63;20.80;;;;;;;12.63;78.31;98960.02;1636716;84;21047;-73
2022/10/18 09:30:18;;;;;;;44.73;20.20;;;;;;;12.72;77.62;98954.96;1696618;83;21004;-74
2022/10/18 09:32:56;;;;;;;35.35;21.68;;;;;;;12.82;77.80;98948.10;1719313;83;20937;-74
2022/10/18 09:35:30;;;;;;;37.65;20.92;;;;;;;12.94;76.81;98950.45;1707154;83;21075;-74
2022/10/18 09:38:08;;;;;;;34.23;20.52;;;;;;;13.05;76.99;98945.73;1708392;83;21028;-74
2022/10/18 09:40:41;;;;;;;32.15;21.20;;;;;;;13.16;77.04;98953.47;1706208;83;21446;-74
2022/10/18 09:43:22;;;;;;;38.30;21.82;;;;;;;13.26;76.32;98951.91;1710392;83;21064;-75
2022/10/18 09:45:52;;;;;;;39.35;21.80;;;;;;;13.33;75.59;98941.06;1713406;83;21036;-75
2022/10/18 09:48:34;;;;;;;34.25;22.35;;;;;;;13.46;76.17;98949.61;1713667;84;20984;-74
2022/10/18 09:51:06;;;;;;;38.08;23.38;;;;;;;13.55;75.43;98944.99;1712446;83;21008;-75
2022/10/18 09:54:26;;;;;;;37.58;22.45;;;;;;;13.65;75.55;98937.62;1713660;83;20989;-75
2022/10/18 09:57:10;;;;;;;35.73;24.15;;;;;;;13.77;75.49;98932.41;1677043;84;21014;-74
2022/10/18 09:59:43;;;;;;;37.00;23.85;;;;;;;13.90;75.13;98924.50;1657107;84;21333;-75
2022/10/18 10:02:21;;;;;;;41.68;23.40;;;;;;;13.99;74.81;98914.03;1680874;84;20956;-75
2022/10/18 10:04:50;;;;;;;36.75;23.87;;;;;;;14.11;75.14;98916.80;1697410;84;21068;-75
2022/10/18 10:07:25;;;;;;;32.28;23.42;;;;;;;14.26;75.04;98914.16;1700719;83;21040;-75
2022/10/18 10:10:09;;;;;;;35.83;22.77;;;;;;;14.35;73.51;98893.88;1696920;84;20988;-75
2022/10/18 10:12:38;;;;;;;30.52;21.55;;;;;;;14.44;73.73;98894.50;1701882;84;20953;-74
2022/10/18 10:15:25;;;;;;;33.67;21.87;;;;;;;14.59;74.08;98897.16;1705501;84;20965;-74
2022/10/18 10:18:06;;;;;;;32.25;21.93;;;;;;;14.69;73.38;98892.42;1687023;84;20977;-74
2022/10/18 10:20:50;;;;;;;30.90;21.02;;;;;;;14.80;74.09;98884.97;1701194;84;20961;-75
2022/10/18 10:23:30;;;;;;;30.82;21.07;;;;;;;14.97;72.82;98882.19;1702242;84;21011;-75
2022/10/18 10:26:03;;;;;;;30.25;20.17;;;;;;;15.42;72.88;98882.02;1688748;84;21068;-75
2022/10/18 10:28:38;;;;;;;32.28;20.32;;;;;;;16.29;72.86;98872.64;1668773;85;20995;-75
2022/10/18 10:31:30;;;;;;;30.02;19.17;;;;;;;17.40;66.76;98868.56;1685768;84;21497;-75
2022/10/18 10:34:17;;;;;;;27.58;18.60;;;;;;;18.39;65.54;98857.48;1687235;84;21068;-75
2022/10/18 10:36:50;;;;;;;31.42;19.77;;;;;;;19.39;66.05;98855.66;1687787;83;20993;-75
2022/10/18 10:39:20;;;;;;;29.55;18.40;;;;;;;20.42;62.24;98838.08;1651299;86;21035;-75
2022/10/18 10:41:57;;;;;;;29.50;17.50;;;;;;;21.45;62.69;98842.92;1699033;83;20980;-75
2022/10/18 10:44:28;;;;;;;22.27;16.42;;;;;;;22.21;61.35;98830.61;1706629;82;20969;-76
2022/10/18 10:46:56;;;;;;;25.68;16.75;;;;;;;22.96;56.14;98825.77;1698084;83;21032;-76
2022/10/18 10:49:30;;;;;;;23.83;16.48;;;;;;;23.76;56.57;98821.25;1706861;83;21071;-75
2022/10/18 10:52:02;;;;;;;19.67;16.35;;;;;;;24.38;52.29;98810.03;1708510;83;21063;-76
2022/10/18 10:54:34;;;;;;;21.12;16.10;;;;;;;24.71;51.34;98811.72;1712277;81;21044;-76
2022/10/18 10:57:11;;;;;;;20.45;15.38;;;;;;;25.15;50.09;98808.45;1711098;83;20984;-76
2022/10/18 10:59:45;;;;;;;24.35;16.15;;;;;;;25.47;50.17;98804.20;1708806;83;21047;-76
2022/10/18 11:02:30;;;;;;;20.85;15.48;;;;;;;26.25;48.84;98788.11;1699601;83;21034;-73
2022/10/18 11:05:24;;;;;;;19.90;15.72;;;;;;;26.71;43.57;98785.25;1710278;83;21027;-76
2022/10/18 11:07:56;;;;;;;22.67;16.20;;;;;;;27.05;45.11;98784.25;1707994;83;21374;-71
2022/10/18 11:10:27;;;;;;;20.80;15.30;;;;;;;27.28;45.32;98766.81;1712357;83;21599;-73
2022/10/18 11:13:40;;;;;;;19.75;13.95;;;;;;;27.63;41.47;98769.32;1709462;83;21000;-73
2022/10/18 11:16:24;;;;;;;23.52;16.23;;;;;;;27.66;39.41;98762.25;1695500;83;21067;-73
2022/10/18 11:18:53;;;;;;;26.93;15.15;;;;;;;27.90;40.57;98760.55;1694976;83;21032;-72
2022/10/18 11:21:27;;;;;;;23.70;15.58;;;;;;;28.00;38.53;98753.78;1701189;83;21029;-73
2022/10/18 11:23:55;;;;;;;19.98;14.70;;;;;;;27.72;42.14;98755.38;1711547;83;21044;-72
2022/10/18 11:26:44;;;;;;;20.25;14.33;;;;;;;27.53;38.67;98752.41;1695730;83;20984;-73
2022/10/18 11:29:38;;;;;;;21.93;14.75;;;;;;;27.03;41.39;98750.41;1664609;85;21353;-72
2022/10/18 11:32:34;;;;;;;18.20;13.38;;;;;;;26.43;40.88;98744.08;1640132;84;20997;-72
2022/10/18 11:35:06;;;;;;;17.20;12.65;;;;;;;26.03;41.83;98744.16;1690527;83;21024;-72
2022/10/18 11:37:50;;;;;;;18.30;12.50;;;;;;;25.86;42.20;98736.03;1690896;83;21449;-70
2022/10/18 11:40:45;;;;;;;14.95;13.25;;;;;;;25.85;42.24;98736.52;1690725;83;21162;-73
2022/10/18 11:43:51;;;;;;;18.07;13.60;;;;;;;25.96;42.47;98730.22;1692234;83;21004;-73
2022/10/18 11:46:50;;;;;;;19.65;14.23;;;;;;;26.05;41.01;98724.03;1692494;83;20937;-76
2022/10/18 11:49:28;;;;;;;15.03;11.22;;;;;;;25.83;42.03;98715.42;1699592;83;21056;-76
2022/10/18 11:52:05;;;;;;;16.05;11.30;;;;;;;25.67;41.41;98705.83;1719330;82;21094;-76
2022/10/18 11:55:07;;;;;;;19.95;12.05;;;;;;;25.66;42.48;98699.16;1692542;83;21048;-76